Terminal Aerodrome Forecast
Issued by NWS Atlanta, GA

Home | Current Version | Previous Version | Text Only | Print | Product List | Glossary On
Versions: 1 2 3 4 5 6 7 8 9 10 11 12 13 14 15
000
FTUS42 KFFC 101100
TAFMCN
TAF
KMCN 101127Z 1012/1112 25004KT P6SM FEW008 SCT025
     FM101500 25004KT P6SM BKN025
     FM101800 22005KT P6SM VCSH BKN040
      TEMPO 1018/1022 3SM TSRA BR BKN035CB
     FM110200 21005KT P6SM SCT035=

USA.gov is the U.S. government's official web portal to all federal, state and local government web resources and services.